Avenel, New Jersey
Current Conditions -  °F | °C
As of 7:55 AM on Monday 20 Oct 2014 (Local Time) from KLDJ Reporting Station
Clear Clear  
Wind Chill:   Ceiling: Unl
Heat Index:   Visibility: 10mi
Dew Point:   Wind: 3mph
Humidity: 69%   Direction: 270°W
Pressure: 30.14"   Gusts: NA
Location:  40.58°N, 74.28°W
Report Text: KLDJ 201155Z AUTO 27003KT 10SM CLR 06/01 A3014 RMK AO2 T00630009 10073 20055
Loading
Personal Weather Stations






























Interactive Weather Map
Tropical Storm Tracking
New forecast layout! Learn more

10-Day Weather Forecast

Advertisements
Track Severe Weather on mobile